Time,TemperatureF,DewpointF,PressureIn,WindDirection,WindDirectionDegrees,WindSpeedMPH,WindSpeedGustMPH,Humidity,HourlyPrecipIn,Conditions,Clouds,dailyrainin,SoftwareType,DateUTC
2013-09-04 00:00:00,70.4,58.9,29.93,SE,127,0.0,3.0,67,0.00,,---,0.00,VWS V14.01,2013-09-04 04:00:00,
2013-09-04 00:01:00,68.2,57.7,29.95,West,263,0.0,3.0,69,0.00,,---,0.00,VWS V14.01,2013-09-04 04:01:00,
2013-09-04 00:02:00,68.2,57.7,29.95,West,263,0.0,0.0,69,0.00,,---,0.00,VWS V14.01,2013-09-04 04:02:00,
2013-09-04 00:07:00,68.1,57.6,29.95,WNW,283,1.0,2.0,69,0.00,,---,0.00,VWS V14.01,2013-09-04 04:07:00,
2013-09-04 00:12:00,67.9,57.8,29.95,WNW,283,0.0,2.0,70,0.00,,---,0.00,VWS V14.01,2013-09-04 04:12:00,
2013-09-04 00:17:00,67.5,57.4,29.95,West,271,0.0,2.0,70,0.00,,---,0.00,VWS V14.01,2013-09-04 04:17:00,
2013-09-04 00:22:00,67.4,58.8,29.94,West,271,0.0,2.0,74,0.00,,---,0.00,VWS V14.01,2013-09-04 04:22:00,
2013-09-04 00:27:00,67.2,57.9,29.94,West,281,0.0,2.0,72,0.00,,---,0.00,VWS V14.01,2013-09-04 04:27:00,
2013-09-04 00:30:00,67.1,57.4,29.95,West,281,0.0,2.0,71,0.00,,---,0.00,VWS V14.01,2013-09-04 04:30:00,
2013-09-04 00:32:00,67.1,57.8,29.95,West,281,0.0,0.0,72,0.00,,---,0.00,VWS V14.01,2013-09-04 04:32:00,
2013-09-04 00:37:00,66.8,57.5,29.95,West,281,0.0,1.0,72,0.00,,---,0.00,VWS V14.01,2013-09-04 04:37:00,
2013-09-04 00:42:00,66.3,57.4,29.95,West,281,0.0,1.0,73,0.00,,---,0.00,VWS V14.01,2013-09-04 04:42:00,
2013-09-04 00:47:00,65.9,57.4,29.95,West,281,0.0,1.0,74,0.00,,---,0.00,VWS V14.01,2013-09-04 04:47:00,
2013-09-04 00:52:00,65.6,57.5,29.95,West,281,0.0,1.0,75,0.00,,---,0.00,VWS V14.01,2013-09-04 04:52:00,
2013-09-04 00:57:00,65.2,57.8,29.95,West,281,0.0,1.0,77,0.00,,---,0.00,VWS V14.01,2013-09-04 04:57:00,
2013-09-04 01:00:00,65.2,57.1,29.95,West,281,0.0,1.0,75,0.00,,---,0.00,VWS V14.01,2013-09-04 05:00:00,
2013-09-04 01:02:00,65.4,58.4,29.95,West,281,0.0,0.0,78,0.00,,---,0.00,VWS V14.01,2013-09-04 05:02:00,
2013-09-04 01:07:00,65.1,57.0,29.95,West,281,0.0,0.0,75,0.00,,---,0.00,VWS V14.01,2013-09-04 05:07:00,
2013-09-04 01:12:00,64.5,57.1,29.95,West,281,0.0,0.0,77,0.00,,---,0.00,VWS V14.01,2013-09-04 05:12:00,
2013-09-04 01:17:00,64.3,57.7,29.95,West,281,0.0,0.0,79,0.00,,---,0.00,VWS V14.01,2013-09-04 05:17:00,
2013-09-04 01:22:00,64.0,57.4,29.95,West,281,0.0,0.0,79,0.00,,---,0.00,VWS V14.01,2013-09-04 05:22:00,
2013-09-04 01:27:00,63.6,58.3,29.95,West,281,0.0,0.0,83,0.00,,---,0.00,VWS V14.01,2013-09-04 05:27:00,
2013-09-04 01:30:00,63.4,58.2,29.95,West,281,0.0,0.0,83,0.00,,---,0.00,VWS V14.01,2013-09-04 05:30:00,
2013-09-04 01:31:00,63.4,58.2,29.95,West,281,0.0,0.0,83,0.00,,---,0.00,VWS V14.01,2013-09-04 05:31:00,
2013-09-04 01:36:00,63.0,58.4,29.96,West,281,0.0,0.0,85,0.00,,---,0.00,VWS V14.01,2013-09-04 05:36:00,
2013-09-04 01:41:00,62.7,58.5,29.96,West,281,0.0,0.0,86,0.00,,---,0.00,VWS V14.01,2013-09-04 05:41:00,
2013-09-04 01:46:00,62.4,58.2,29.96,West,281,0.0,0.0,86,0.00,,---,0.00,VWS V14.01,2013-09-04 05:46:00,
2013-09-04 01:51:00,62.3,58.1,29.97,West,281,0.0,0.0,86,0.00,,---,0.00,VWS V14.01,2013-09-04 05:51:00,
2013-09-04 01:56:00,62.2,58.0,29.97,West,281,0.0,0.0,86,0.00,,---,0.00,VWS V14.01,2013-09-04 05:56:00,
2013-09-04 02:00:00,65.2,57.1,29.95,West,281,0.0,1.0,75,0.00,,---,0.00,VWS V14.01,2013-09-04 06:00:00,
2013-09-04 02:01:00,62.0,58.1,29.97,West,281,0.0,0.0,87,0.00,,---,0.00,VWS V14.01,2013-09-04 06:01:00,
2013-09-04 02:06:00,61.7,58.1,29.97,West,281,0.0,0.0,88,0.00,,---,0.00,VWS V14.01,2013-09-04 06:06:00,
2013-09-04 02:11:00,61.3,58.0,29.97,West,281,0.0,0.0,89,0.00,,---,0.00,VWS V14.01,2013-09-04 06:11:00,
2013-09-04 02:16:00,61.0,58.0,29.97,West,281,0.0,0.0,90,0.00,,---,0.00,VWS V14.01,2013-09-04 06:16:00,
2013-09-04 02:21:00,60.8,57.8,29.97,West,281,0.0,0.0,90,0.00,,---,0.00,VWS V14.01,2013-09-04 06:21:00,
2013-09-04 02:26:00,60.7,58.1,29.97,West,281,0.0,0.0,91,0.00,,---,0.00,VWS V14.01,2013-09-04 06:26:00,
2013-09-04 02:30:00,60.6,58.3,29.97,West,281,0.0,0.0,92,0.00,,---,0.00,VWS V14.01,2013-09-04 06:30:00,
2013-09-04 02:31:00,60.6,58.3,29.98,West,281,0.0,0.0,92,0.00,,---,0.00,VWS V14.01,2013-09-04 06:31:00,
2013-09-04 02:36:00,60.3,57.7,29.98,West,281,0.0,0.0,91,0.00,,---,0.00,VWS V14.01,2013-09-04 06:36:00,
2013-09-04 02:41:00,60.2,57.9,29.98,West,281,0.0,0.0,92,0.00,,---,0.00,VWS V14.01,2013-09-04 06:41:00,
2013-09-04 02:46:00,60.2,57.9,29.98,West,281,0.0,0.0,92,0.00,,---,0.00,VWS V14.01,2013-09-04 06:46:00,
2013-09-04 02:51:00,60.5,57.9,29.98,West,281,0.0,0.0,91,0.00,,---,0.00,VWS V14.01,2013-09-04 06:51:00,
2013-09-04 02:56:00,60.4,57.5,29.98,West,281,0.0,0.0,90,0.00,,---,0.00,VWS V14.01,2013-09-04 06:56:00,
2013-09-04 03:00:00,60.2,57.9,29.98,West,281,0.0,0.0,92,0.00,,---,0.00,VWS V14.01,2013-09-04 07:00:00,
2013-09-04 03:01:00,60.2,57.9,29.98,West,281,0.0,0.0,92,0.00,,---,0.00,VWS V14.01,2013-09-04 07:01:00,
2013-09-04 03:06:00,59.9,57.6,29.98,West,281,0.0,0.0,92,0.00,,---,0.00,VWS V14.01,2013-09-04 07:06:00,
2013-09-04 03:11:00,59.7,57.4,29.98,West,281,0.0,0.0,92,0.00,,---,0.00,VWS V14.01,2013-09-04 07:11:00,
2013-09-04 03:16:00,59.6,57.6,29.98,West,281,0.0,0.0,93,0.00,,---,0.00,VWS V14.01,2013-09-04 07:16:00,
2013-09-04 03:21:00,59.8,57.5,29.98,West,281,0.0,0.0,92,0.00,,---,0.00,VWS V14.01,2013-09-04 07:21:00,
2013-09-04 03:26:00,59.8,57.8,29.98,West,281,0.0,0.0,93,0.00,,---,0.00,VWS V14.01,2013-09-04 07:26:00,
2013-09-04 03:30:00,59.6,57.6,29.98,West,281,0.0,0.0,93,0.00,,---,0.00,VWS V14.01,2013-09-04 07:30:00,
2013-09-04 03:31:00,59.6,57.6,29.98,West,281,0.0,0.0,93,0.00,,---,0.00,VWS V14.01,2013-09-04 07:31:00,
2013-09-04 03:36:00,59.5,57.5,29.98,West,281,0.0,0.0,93,0.00,,---,0.00,VWS V14.01,2013-09-04 07:36:00,
2013-09-04 03:41:00,59.2,57.2,29.99,West,281,0.0,0.0,93,0.00,,---,0.00,VWS V14.01,2013-09-04 07:41:00,
2013-09-04 03:46:00,59.1,57.4,29.99,West,281,0.0,0.0,94,0.00,,---,0.00,VWS V14.01,2013-09-04 07:46:00,
2013-09-04 03:51:00,58.9,57.2,29.99,West,281,0.0,0.0,94,0.00,,---,0.00,VWS V14.01,2013-09-04 07:51:00,
2013-09-04 03:56:00,58.9,57.2,29.99,West,281,0.0,0.0,94,0.00,,---,0.00,VWS V14.01,2013-09-04 07:56:00,
2013-09-04 04:00:00,58.8,57.1,29.99,West,281,0.0,0.0,94,0.00,,---,0.00,VWS V14.01,2013-09-04 08:00:00,
2013-09-04 04:01:00,58.8,57.1,29.99,West,281,0.0,0.0,94,0.00,,---,0.00,VWS V14.01,2013-09-04 08:01:00,
2013-09-04 04:06:00,58.7,57.0,29.99,West,281,0.0,0.0,94,0.00,,---,0.00,VWS V14.01,2013-09-04 08:06:00,
2013-09-04 04:11:00,58.6,56.9,29.99,West,281,0.0,0.0,94,0.00,,---,0.00,VWS V14.01,2013-09-04 08:11:00,
2013-09-04 04:16:00,58.5,57.1,29.99,West,281,0.0,0.0,95,0.00,,---,0.00,VWS V14.01,2013-09-04 08:16:00,
2013-09-04 04:21:00,58.5,57.1,29.99,West,281,0.0,0.0,95,0.00,,---,0.00,VWS V14.01,2013-09-04 08:21:00,
2013-09-04 04:26:00,58.5,57.1,30.00,West,281,0.0,0.0,95,0.00,,---,0.00,VWS V14.01,2013-09-04 08:26:00,
2013-09-04 04:30:00,58.5,57.1,30.00,West,281,0.0,0.0,95,0.00,,---,0.00,VWS V14.01,2013-09-04 08:30:00,
2013-09-04 04:31:00,58.5,57.1,30.00,West,281,0.0,0.0,95,0.00,,---,0.00,VWS V14.01,2013-09-04 08:31:00,
2013-09-04 04:36:00,58.5,57.1,30.00,West,281,0.0,0.0,95,0.00,,---,0.00,VWS V14.01,2013-09-04 08:36:00,
2013-09-04 04:41:00,58.5,57.1,30.00,West,281,0.0,0.0,95,0.00,,---,0.00,VWS V14.01,2013-09-04 08:41:00,
2013-09-04 04:46:00,58.6,57.2,30.00,West,281,0.0,0.0,95,0.00,,---,0.00,VWS V14.01,2013-09-04 08:46:00,
2013-09-04 04:51:00,58.4,57.0,30.00,West,281,0.0,0.0,95,0.00,,---,0.00,VWS V14.01,2013-09-04 08:51:00,
2013-09-04 04:56:00,58.2,56.8,30.00,West,281,0.0,0.0,95,0.00,,---,0.00,VWS V14.01,2013-09-04 08:56:00,
2013-09-04 05:00:00,58.0,56.6,30.00,West,281,0.0,0.0,95,0.00,,---,0.00,VWS V14.01,2013-09-04 09:00:00,
2013-09-04 05:01:00,58.0,56.6,30.00,West,281,0.0,0.0,95,0.00,,---,0.00,VWS V14.01,2013-09-04 09:01:00,
2013-09-04 05:06:00,57.9,56.5,30.00,West,281,0.0,0.0,95,0.00,,---,0.00,VWS V14.01,2013-09-04 09:06:00,
2013-09-04 05:11:00,57.8,56.4,30.00,West,281,0.0,0.0,95,0.00,,---,0.00,VWS V14.01,2013-09-04 09:11:00,
2013-09-04 05:16:00,57.8,56.4,30.00,West,281,0.0,0.0,95,0.00,,---,0.00,VWS V14.01,2013-09-04 09:16:00,
2013-09-04 05:21:00,57.9,56.5,30.00,West,281,0.0,0.0,95,0.00,,---,0.00,VWS V14.01,2013-09-04 09:21:00,
2013-09-04 05:26:00,57.9,56.5,30.00,West,281,0.0,0.0,95,0.00,,---,0.00,VWS V14.01,2013-09-04 09:26:00,
2013-09-04 05:30:00,57.8,56.4,30.01,West,281,0.0,0.0,95,0.00,,---,0.00,VWS V14.01,2013-09-04 09:30:00,
2013-09-04 05:31:00,57.9,56.5,30.00,West,281,0.0,0.0,95,0.00,,---,0.00,VWS V14.01,2013-09-04 09:31:00,
2013-09-04 05:36:00,57.7,56.3,30.01,West,281,0.0,0.0,95,0.00,,---,0.00,VWS V14.01,2013-09-04 09:36:00,
2013-09-04 05:41:00,57.5,56.1,30.01,West,281,0.0,0.0,95,0.00,,---,0.00,VWS V14.01,2013-09-04 09:41:00,
2013-09-04 05:46:00,57.4,56.0,30.01,West,281,0.0,0.0,95,0.00,,---,0.00,VWS V14.01,2013-09-04 09:46:00,
2013-09-04 05:51:00,57.5,56.1,30.01,West,281,0.0,0.0,95,0.00,,---,0.00,VWS V14.01,2013-09-04 09:51:00,
2013-09-04 05:56:00,57.3,55.9,30.01,West,281,0.0,0.0,95,0.00,,---,0.00,VWS V14.01,2013-09-04 09:56:00,
2013-09-04 06:00:00,57.3,56.2,30.01,West,281,0.0,0.0,96,0.00,,---,0.00,VWS V14.01,2013-09-04 10:00:00,
2013-09-04 06:01:00,57.3,56.2,30.01,West,281,0.0,0.0,96,0.00,,---,0.00,VWS V14.01,2013-09-04 10:01:00,
2013-09-04 06:06:00,57.3,56.2,30.02,West,281,0.0,0.0,96,0.00,,---,0.00,VWS V14.01,2013-09-04 10:06:00,
2013-09-04 06:11:00,57.2,56.1,30.02,West,281,0.0,0.0,96,0.00,,---,0.00,VWS V14.01,2013-09-04 10:11:00,
2013-09-04 06:16:00,57.4,56.3,30.02,West,281,0.0,0.0,96,0.00,,---,0.00,VWS V14.01,2013-09-04 10:16:00,
2013-09-04 06:21:00,57.4,56.0,30.02,West,281,0.0,0.0,95,0.00,,---,0.00,VWS V14.01,2013-09-04 10:21:00,
2013-09-04 06:26:00,57.3,55.9,30.02,West,281,0.0,0.0,95,0.00,,---,0.00,VWS V14.01,2013-09-04 10:26:00,
2013-09-04 06:30:00,57.3,55.9,30.02,West,281,0.0,0.0,95,0.00,,---,0.00,VWS V14.01,2013-09-04 10:30:00,
2013-09-04 06:31:00,57.3,55.9,30.02,West,281,0.0,0.0,95,0.00,,---,0.00,VWS V14.01,2013-09-04 10:31:00,
2013-09-04 06:36:00,57.2,55.8,30.02,West,281,0.0,0.0,95,0.00,,---,0.00,VWS V14.01,2013-09-04 10:36:00,
2013-09-04 06:41:00,57.1,55.7,30.02,West,281,0.0,0.0,95,0.00,,---,0.00,VWS V14.01,2013-09-04 10:41:00,
2013-09-04 06:46:00,57.1,56.0,30.03,West,281,0.0,0.0,96,0.00,,---,0.00,VWS V14.01,2013-09-04 10:46:00,
2013-09-04 06:51:00,57.2,55.8,30.03,West,281,0.0,0.0,95,0.00,,---,0.00,VWS V14.01,2013-09-04 10:51:00,
2013-09-04 06:56:00,57.2,55.8,30.03,West,281,0.0,0.0,95,0.00,,---,0.00,VWS V14.01,2013-09-04 10:56:00,
2013-09-04 07:00:00,57.3,55.9,30.04,West,281,0.0,0.0,95,0.00,,---,0.00,VWS V14.01,2013-09-04 11:00:00,
2013-09-04 07:01:00,57.3,55.9,30.04,West,281,0.0,0.0,95,0.00,,---,0.00,VWS V14.01,2013-09-04 11:01:00,
2013-09-04 07:06:00,57.5,56.1,30.04,West,281,0.0,0.0,95,0.00,,---,0.00,VWS V14.01,2013-09-04 11:06:00,
2013-09-04 07:11:00,57.6,56.2,30.05,West,281,0.0,0.0,95,0.00,,---,0.00,VWS V14.01,2013-09-04 11:11:00,
2013-09-04 07:16:00,57.9,56.5,30.05,West,281,0.0,0.0,95,0.00,,---,0.00,VWS V14.01,2013-09-04 11:16:00,
2013-09-04 07:21:00,58.2,56.5,30.05,West,281,0.0,0.0,94,0.00,,---,0.00,VWS V14.01,2013-09-04 11:21:00,
2013-09-04 07:26:00,58.5,56.8,30.05,West,281,0.0,0.0,94,0.00,,---,0.00,VWS V14.01,2013-09-04 11:26:00,
2013-09-04 07:30:00,58.7,57.0,30.05,West,281,0.0,0.0,94,0.00,,---,0.00,VWS V14.01,2013-09-04 11:30:00,
2013-09-04 07:31:00,58.7,57.0,30.05,West,281,0.0,0.0,94,0.00,,---,0.00,VWS V14.01,2013-09-04 11:31:00,
2013-09-04 07:36:00,59.2,57.2,30.05,West,281,0.0,0.0,93,0.00,,---,0.00,VWS V14.01,2013-09-04 11:36:00,
2013-09-04 07:41:00,59.7,57.7,30.05,West,281,0.0,0.0,93,0.00,,---,0.00,VWS V14.01,2013-09-04 11:41:00,
2013-09-04 07:46:00,60.2,57.9,30.06,West,281,0.0,0.0,92,0.00,,---,0.00,VWS V14.01,2013-09-04 11:46:00,
2013-09-04 07:51:00,60.6,58.6,30.06,West,281,1.0,1.0,93,0.00,,---,0.00,VWS V14.01,2013-09-04 11:51:00,
2013-09-04 07:56:00,61.2,58.2,30.06,West,281,0.0,2.0,90,0.00,,---,0.00,VWS V14.01,2013-09-04 11:56:00,
2013-09-04 08:00:00,61.9,58.3,30.06,West,281,0.0,2.0,88,0.00,,---,0.00,VWS V14.01,2013-09-04 12:00:00,
2013-09-04 08:01:00,62.0,58.4,30.06,West,281,0.0,0.0,88,0.00,,---,0.00,VWS V14.01,2013-09-04 12:01:00,
2013-09-04 08:06:00,62.9,58.7,30.06,West,281,0.0,1.0,86,0.00,,---,0.00,VWS V14.01,2013-09-04 12:06:00,
2013-09-04 08:11:00,63.6,59.3,30.06,West,281,0.0,1.0,86,0.00,,---,0.00,VWS V14.01,2013-09-04 12:11:00,
2013-09-04 08:16:00,64.6,59.0,30.06,West,281,0.0,1.0,82,0.00,,---,0.00,VWS V14.01,2013-09-04 12:16:00,
2013-09-04 08:21:00,65.5,59.9,30.06,West,281,0.0,1.0,82,0.00,,---,0.00,VWS V14.01,2013-09-04 12:21:00,
2013-09-04 08:26:00,65.9,59.2,30.06,West,281,0.0,1.0,79,0.00,,---,0.00,VWS V14.01,2013-09-04 12:26:00,
2013-09-04 08:30:00,66.8,59.7,30.06,West,281,0.0,1.0,78,0.00,,---,0.00,VWS V14.01,2013-09-04 12:30:00,
2013-09-04 08:31:00,66.8,59.4,30.06,West,281,0.0,0.0,77,0.00,,---,0.00,VWS V14.01,2013-09-04 12:31:00,
2013-09-04 08:36:00,67.1,59.7,30.06,West,281,0.0,1.0,77,0.00,,---,0.00,VWS V14.01,2013-09-04 12:36:00,
2013-09-04 08:41:00,67.5,59.7,30.06,West,281,0.0,1.0,76,0.00,,---,0.00,VWS V14.01,2013-09-04 12:41:00,
2013-09-04 08:46:00,67.9,60.1,30.06,West,281,1.0,1.0,76,0.00,,---,0.00,VWS V14.01,2013-09-04 12:46:00,
2013-09-04 08:51:00,68.3,60.5,30.06,West,281,0.0,2.0,76,0.00,,---,0.00,VWS V14.01,2013-09-04 12:51:00,
2013-09-04 08:56:00,68.4,59.8,30.06,WNW,282,0.0,2.0,74,0.00,,---,0.00,VWS V14.01,2013-09-04 12:56:00,
2013-09-04 09:00:00,68.3,60.5,30.06,South,172,1.0,2.0,76,0.00,,---,0.00,VWS V14.01,2013-09-04 13:00:00,
2013-09-04 09:01:00,68.4,60.2,30.06,South,172,0.0,1.0,75,0.00,,---,0.00,VWS V14.01,2013-09-04 13:01:00,
2013-09-04 09:06:00,69.0,60.8,30.07,South,172,0.0,1.0,75,0.00,,---,0.00,VWS V14.01,2013-09-04 13:06:00,
2013-09-04 09:11:00,69.8,61.2,30.06,South,181,0.0,2.0,74,0.00,,---,0.00,VWS V14.01,2013-09-04 13:11:00,
2013-09-04 09:16:00,70.4,61.3,30.07,South,182,0.0,2.0,73,0.00,,---,0.00,VWS V14.01,2013-09-04 13:16:00,
2013-09-04 09:21:00,71.3,61.0,30.06,SSW,194,0.0,2.0,70,0.00,,---,0.00,VWS V14.01,2013-09-04 13:21:00,
2013-09-04 09:26:00,71.5,62.0,30.06,West,278,0.0,3.0,72,0.00,,---,0.00,VWS V14.01,2013-09-04 13:26:00,
2013-09-04 09:30:00,71.7,63.0,30.06,West,280,0.0,3.0,74,0.00,,---,0.00,VWS V14.01,2013-09-04 13:30:00,
2013-09-04 09:31:00,71.7,63.0,30.06,West,280,0.0,0.0,74,0.00,,---,0.00,VWS V14.01,2013-09-04 13:31:00,
2013-09-04 09:36:00,72.4,61.2,30.06,WSW,239,0.0,3.0,68,0.00,,---,0.00,VWS V14.01,2013-09-04 13:36:00,
2013-09-04 09:41:00,72.2,60.7,30.06,WNW,286,1.0,3.0,67,0.00,,---,0.00,VWS V14.01,2013-09-04 13:41:00,
2013-09-04 09:46:00,72.5,59.6,30.06,WSW,247,1.0,5.0,64,0.00,,---,0.00,VWS V14.01,2013-09-04 13:46:00,
2013-09-04 09:51:00,72.4,61.2,30.06,WSW,246,1.0,5.0,68,0.00,,---,0.00,VWS V14.01,2013-09-04 13:51:00,
2013-09-04 09:56:00,72.7,60.7,30.06,WSW,250,0.0,5.0,66,0.00,,---,0.00,VWS V14.01,2013-09-04 13:56:00,
2013-09-04 10:00:00,73.5,60.2,30.06,SW,233,1.0,5.0,63,0.00,,---,0.00,VWS V14.01,2013-09-04 14:00:00,
2013-09-04 10:01:00,73.5,60.2,30.06,SW,233,0.0,1.0,63,0.00,,---,0.00,VWS V14.01,2013-09-04 14:01:00,
2013-09-04 10:06:00,73.5,61.5,30.06,North,358,1.0,4.0,66,0.00,,---,0.00,VWS V14.01,2013-09-04 14:06:00,
2013-09-04 10:11:00,73.0,60.1,30.06,SE,129,0.0,4.0,64,0.00,,---,0.00,VWS V14.01,2013-09-04 14:11:00,
2013-09-04 10:16:00,73.8,61.3,30.06,SW,236,0.0,4.0,65,0.00,,---,0.00,VWS V14.01,2013-09-04 14:16:00,
2013-09-04 10:21:00,74.9,60.1,30.06,NW,305,0.0,4.0,60,0.00,,---,0.00,VWS V14.01,2013-09-04 14:21:00,
2013-09-04 10:26:00,73.5,59.2,30.06,NW,325,0.0,4.0,61,0.00,,---,0.00,VWS V14.01,2013-09-04 14:26:00,
2013-09-04 10:30:00,73.9,59.2,30.06,ESE,104,1.0,4.0,60,0.00,,---,0.00,VWS V14.01,2013-09-04 14:30:00,
2013-09-04 10:31:00,73.9,59.2,30.06,ESE,104,1.0,4.0,60,0.00,,---,0.00,VWS V14.01,2013-09-04 14:31:00,
2013-09-04 10:36:00,74.2,59.9,30.06,ESE,117,0.0,3.0,61,0.00,,---,0.00,VWS V14.01,2013-09-04 14:36:00,
2013-09-04 10:41:00,75.4,61.5,30.06,SW,236,0.0,3.0,62,0.00,,---,0.00,VWS V14.01,2013-09-04 14:41:00,
2013-09-04 10:46:00,75.7,61.3,30.06,SW,235,0.0,3.0,61,0.00,,---,0.00,VWS V14.01,2013-09-04 14:46:00,
2013-09-04 10:51:00,76.0,60.2,30.06,West,277,0.0,3.0,58,0.00,,---,0.00,VWS V14.01,2013-09-04 14:51:00,
2013-09-04 10:56:00,76.6,61.2,30.06,North,359,3.0,3.0,59,0.00,,---,0.00,VWS V14.01,2013-09-04 14:56:00,
2013-09-04 11:00:00,73.5,60.2,30.06,SW,233,1.0,5.0,63,0.00,,---,0.00,VWS V14.01,2013-09-04 15:00:00,
2013-09-04 11:01:00,76.2,60.4,30.06,NNW,342,1.0,3.0,58,0.00,,---,0.00,VWS V14.01,2013-09-04 15:01:00,
2013-09-04 11:06:00,77.0,60.1,30.06,NNW,333,0.0,3.0,56,0.00,,---,0.00,VWS V14.01,2013-09-04 15:06:00,
2013-09-04 11:11:00,76.4,60.5,30.06,NNW,335,1.0,4.0,58,0.00,,---,0.00,VWS V14.01,2013-09-04 15:11:00,
2013-09-04 11:16:00,76.1,61.7,30.06,NNW,345,0.0,4.0,61,0.00,,---,0.00,VWS V14.01,2013-09-04 15:16:00,
2013-09-04 11:21:00,76.9,61.0,30.06,WSW,239,0.0,4.0,58,0.00,,---,0.00,VWS V14.01,2013-09-04 15:21:00,
2013-09-04 11:26:00,77.8,60.4,30.06,ESE,102,1.0,4.0,55,0.00,,---,0.00,VWS V14.01,2013-09-04 15:26:00,
2013-09-04 11:30:00,77.1,59.7,30.06,NNW,342,0.0,4.0,55,0.00,,---,0.00,VWS V14.01,2013-09-04 15:30:00,
2013-09-04 11:31:00,77.1,59.7,30.06,NNW,341,0.0,4.0,55,0.00,,---,0.00,VWS V14.01,2013-09-04 15:31:00,
2013-09-04 11:36:00,77.8,59.3,30.06,WSW,239,1.0,3.0,53,0.00,,---,0.00,VWS V14.01,2013-09-04 15:36:00,
2013-09-04 11:41:00,78.3,60.3,30.06,WSW,250,0.0,3.0,54,0.00,,---,0.00,VWS V14.01,2013-09-04 15:41:00,
2013-09-04 11:46:00,77.9,59.4,30.06,WSW,238,0.0,3.0,53,0.00,,---,0.00,VWS V14.01,2013-09-04 15:46:00,
2013-09-04 11:51:00,78.5,59.4,30.06,WSW,244,0.0,3.0,52,0.00,,---,0.00,VWS V14.01,2013-09-04 15:51:00,
2013-09-04 11:56:00,78.4,58.8,30.05,ESE,117,2.0,3.0,51,0.00,,---,0.00,VWS V14.01,2013-09-04 15:56:00,
2013-09-04 12:00:00,78.3,58.7,30.05,NNW,340,0.0,3.0,51,0.00,,---,0.00,VWS V14.01,2013-09-04 16:00:00,
2013-09-04 12:01:00,78.3,58.7,30.05,NNW,340,0.0,3.0,51,0.00,,---,0.00,VWS V14.01,2013-09-04 16:01:00,
2013-09-04 12:06:00,78.6,59.5,30.05,East,100,2.0,2.0,52,0.00,,---,0.00,VWS V14.01,2013-09-04 16:06:00,
2013-09-04 12:11:00,78.6,60.1,30.05,West,269,0.0,3.0,53,0.00,,---,0.00,VWS V14.01,2013-09-04 16:11:00,
2013-09-04 12:16:00,78.4,60.4,30.05,WNW,285,1.0,3.0,54,0.00,,---,0.00,VWS V14.01,2013-09-04 16:16:00,
2013-09-04 12:21:00,78.5,59.4,30.05,North,358,0.0,3.0,52,0.00,,---,0.00,VWS V14.01,2013-09-04 16:21:00,
2013-09-04 12:25:00,78.0,57.9,30.05,North,2,0.0,3.0,50,0.00,,---,0.00,VWS V14.01,2013-09-04 16:25:00,
2013-09-04 12:30:00,78.7,59.1,30.05,WSW,241,0.0,3.0,51,0.00,,---,0.00,VWS V14.01,2013-09-04 16:30:00,
2013-09-04 12:35:00,80.2,58.2,30.05,WSW,246,0.0,3.0,47,0.00,,---,0.00,VWS V14.01,2013-09-04 16:35:00,
2013-09-04 12:40:00,80.2,58.8,30.05,SSW,210,0.0,3.0,48,0.00,,---,0.00,VWS V14.01,2013-09-04 16:40:00,
2013-09-04 12:45:00,80.3,58.8,30.05,WSW,248,0.0,3.0,48,0.00,,---,0.00,VWS V14.01,2013-09-04 16:45:00,
2013-09-04 12:50:00,80.4,59.5,30.05,SSW,195,1.0,3.0,49,0.00,,---,0.00,VWS V14.01,2013-09-04 16:50:00,
2013-09-04 12:55:00,80.3,60.0,30.05,NNW,331,0.0,4.0,50,0.00,,---,0.00,VWS V14.01,2013-09-04 16:55:00,
2013-09-04 13:00:00,78.3,57.0,30.05,NE,41,0.0,4.0,48,0.00,,---,0.00,VWS V14.01,2013-09-04 17:00:00,
2013-09-04 13:05:00,79.2,59.0,30.05,WNW,294,0.0,1.0,50,0.00,,---,0.00,VWS V14.01,2013-09-04 17:05:00,
2013-09-04 13:10:00,81.1,57.8,30.05,West,265,0.0,2.0,45,0.00,,---,0.00,VWS V14.01,2013-09-04 17:10:00,
2013-09-04 13:15:00,81.5,56.9,30.05,WSW,249,0.0,2.0,43,0.00,,---,0.00,VWS V14.01,2013-09-04 17:15:00,
2013-09-04 13:20:00,80.9,55.7,30.04,NW,315,0.0,3.0,42,0.00,,---,0.00,VWS V14.01,2013-09-04 17:20:00,
2013-09-04 13:25:00,79.6,56.4,30.04,NW,315,1.0,3.0,45,0.00,,---,0.00,VWS V14.01,2013-09-04 17:25:00,
2013-09-04 13:30:00,78.5,57.2,30.04,East,91,2.0,4.0,48,0.00,,---,0.00,VWS V14.01,2013-09-04 17:30:00,
2013-09-04 13:35:00,79.0,56.5,30.04,NNW,328,1.0,3.0,46,0.00,,---,0.00,VWS V14.01,2013-09-04 17:35:00,
2013-09-04 13:40:00,80.0,55.5,30.03,West,277,0.0,3.0,43,0.00,,---,0.00,VWS V14.01,2013-09-04 17:40:00,
2013-09-04 13:45:00,81.1,56.5,30.03,SW,234,0.0,3.0,43,0.00,,---,0.00,VWS V14.01,2013-09-04 17:45:00,
2013-09-04 13:50:00,82.0,57.3,30.03,SW,234,0.0,3.0,43,0.00,,---,0.00,VWS V14.01,2013-09-04 17:50:00,
2013-09-04 13:55:00,82.1,57.4,30.03,NW,321,0.0,3.0,43,0.00,,---,0.00,VWS V14.01,2013-09-04 17:55:00,
2013-09-04 14:00:00,82.5,56.5,30.03,NNW,328,3.0,3.0,41,0.00,,---,0.00,VWS V14.01,2013-09-04 18:00:00,
2013-09-04 14:05:00,81.6,57.0,30.03,South,182,0.0,3.0,43,0.00,,---,0.00,VWS V14.01,2013-09-04 18:05:00,
2013-09-04 14:10:00,81.1,55.2,30.03,South,186,0.0,3.0,41,0.00,,---,0.00,VWS V14.01,2013-09-04 18:10:00,
2013-09-04 14:15:00,82.1,56.8,30.02,NW,325,0.0,3.0,42,0.00,,---,0.00,VWS V14.01,2013-09-04 18:15:00,
2013-09-04 14:20:00,81.4,57.4,30.02,NNE,14,0.0,3.0,44,0.00,,---,0.00,VWS V14.01,2013-09-04 18:20:00,
2013-09-04 14:25:00,82.6,55.2,30.02,WNW,286,0.0,3.0,39,0.00,,---,0.00,VWS V14.01,2013-09-04 18:25:00,
2013-09-04 14:30:00,81.5,55.5,30.02,NW,310,0.0,3.0,41,0.00,,---,0.00,VWS V14.01,2013-09-04 18:30:00,
2013-09-04 14:35:00,82.4,54.3,30.02,NW,306,2.0,2.0,38,0.00,,---,0.00,VWS V14.01,2013-09-04 18:35:00,
2013-09-04 14:40:00,82.3,53.5,30.02,NW,306,1.0,2.0,37,0.00,,---,0.00,VWS V14.01,2013-09-04 18:40:00,
2013-09-04 14:45:00,83.3,55.1,30.02,WSW,242,0.0,2.0,38,0.00,,---,0.00,VWS V14.01,2013-09-04 18:45:00,
2013-09-04 14:50:00,83.2,55.0,30.02,ESE,103,0.0,2.0,38,0.00,,---,0.00,VWS V14.01,2013-09-04 18:50:00,
2013-09-04 14:55:00,83.8,53.3,30.01,WSW,238,2.0,2.0,35,0.00,,---,0.00,VWS V14.01,2013-09-04 18:55:00,
2013-09-04 15:00:00,83.4,51.3,30.01,West,266,0.0,4.0,33,0.00,,---,0.00,VWS V14.01,2013-09-04 19:00:00,
2013-09-04 15:05:00,83.2,51.1,30.01,WNW,289,0.0,3.0,33,0.00,,---,0.00,VWS V14.01,2013-09-04 19:05:00,
2013-09-04 15:10:00,82.9,50.9,30.01,WNW,286,0.0,3.0,33,0.00,,---,0.00,VWS V14.01,2013-09-04 19:10:00,
2013-09-04 15:15:00,83.5,50.6,30.01,West,262,0.0,3.0,32,0.00,,---,0.00,VWS V14.01,2013-09-04 19:15:00,
2013-09-04 15:20:00,82.9,52.5,30.01,NW,326,0.0,3.0,35,0.00,,---,0.00,VWS V14.01,2013-09-04 19:20:00,
2013-09-04 15:25:00,82.5,51.3,30.01,NNW,330,2.0,3.0,34,0.00,,---,0.00,VWS V14.01,2013-09-04 19:25:00,
2013-09-04 15:30:00,82.3,50.3,30.01,NNW,330,0.0,5.0,33,0.00,,---,0.00,VWS V14.01,2013-09-04 19:30:00,
2013-09-04 15:35:00,81.9,51.6,30.01,NNW,329,0.0,1.0,35,0.00,,---,0.00,VWS V14.01,2013-09-04 19:35:00,
2013-09-04 15:40:00,81.9,52.3,30.00,East,86,1.0,2.0,36,0.00,,---,0.00,VWS V14.01,2013-09-04 19:40:00,
2013-09-04 15:45:00,82.1,56.1,30.00,NW,319,0.0,2.0,41,0.00,,---,0.00,VWS V14.01,2013-09-04 19:45:00,
2013-09-04 15:50:00,82.9,55.4,30.00,SSW,200,0.0,2.0,39,0.00,,---,0.00,VWS V14.01,2013-09-04 19:50:00,
2013-09-04 15:55:00,83.3,52.8,30.00,WSW,243,0.0,3.0,35,0.00,,---,0.00,VWS V14.01,2013-09-04 19:55:00,
2013-09-04 16:00:00,82.9,52.5,30.00,WSW,243,2.0,5.0,35,0.00,,---,0.00,VWS V14.01,2013-09-04 20:00:00,
2013-09-04 16:05:00,82.7,52.3,30.00,WSW,256,0.0,3.0,35,0.00,,---,0.00,VWS V14.01,2013-09-04 20:05:00,
2013-09-04 16:10:00,82.0,51.7,30.00,SSE,148,0.0,3.0,35,0.00,,---,0.00,VWS V14.01,2013-09-04 20:10:00,
2013-09-04 16:15:00,81.5,49.7,30.00,WNW,300,0.0,3.0,33,0.00,,---,0.00,VWS V14.01,2013-09-04 20:15:00,
2013-09-04 16:20:00,81.7,52.2,30.00,WNW,288,1.0,3.0,36,0.00,,---,0.00,VWS V14.01,2013-09-04 20:20:00,
2013-09-04 16:25:00,81.2,49.4,30.00,NNW,345,0.0,3.0,33,0.00,,---,0.00,VWS V14.01,2013-09-04 20:25:00,
2013-09-04 16:30:00,81.3,50.3,30.00,NNE,18,0.0,3.0,34,0.00,,---,0.00,VWS V14.01,2013-09-04 20:30:00,
2013-09-04 16:35:00,81.5,52.7,30.00,NW,323,0.0,1.0,37,0.00,,---,0.00,VWS V14.01,2013-09-04 20:35:00,
2013-09-04 16:40:00,81.5,51.2,30.00,NW,326,1.0,3.0,35,0.00,,---,0.00,VWS V14.01,2013-09-04 20:40:00,
2013-09-04 16:45:00,81.6,55.0,30.00,NW,309,0.0,3.0,40,0.00,,---,0.00,VWS V14.01,2013-09-04 20:45:00,
2013-09-04 16:50:00,81.7,52.9,30.00,SW,222,0.0,3.0,37,0.00,,---,0.00,VWS V14.01,2013-09-04 20:50:00,
2013-09-04 16:55:00,81.8,51.5,30.00,West,278,0.0,3.0,35,0.00,,---,0.00,VWS V14.01,2013-09-04 20:55:00,
2013-09-04 17:00:00,81.7,52.2,30.00,WSW,240,0.0,3.0,36,0.00,,---,0.00,VWS V14.01,2013-09-04 21:00:00,
2013-09-04 17:05:00,81.8,53.7,30.00,SSW,200,0.0,1.0,38,0.00,,---,0.00,VWS V14.01,2013-09-04 21:05:00,
2013-09-04 17:10:00,81.6,54.3,29.99,NW,323,0.0,4.0,39,0.00,,---,0.00,VWS V14.01,2013-09-04 21:10:00,
2013-09-04 17:15:00,82.0,53.2,30.00,West,264,1.0,4.0,37,0.00,,---,0.00,VWS V14.01,2013-09-04 21:15:00,
2013-09-04 17:20:00,82.1,53.3,30.00,West,268,0.0,4.0,37,0.00,,---,0.00,VWS V14.01,2013-09-04 21:20:00,
2013-09-04 17:25:00,81.3,53.3,30.00,NNW,339,0.0,4.0,38,0.00,,---,0.00,VWS V14.01,2013-09-04 21:25:00,
2013-09-04 17:30:00,80.9,52.9,30.00,NNW,342,0.0,4.0,38,0.00,,---,0.00,VWS V14.01,2013-09-04 21:30:00,
2013-09-04 17:35:00,81.0,53.0,30.00,WNW,293,0.0,2.0,38,0.00,,---,0.00,VWS V14.01,2013-09-04 21:35:00,
2013-09-04 17:40:00,81.5,53.5,30.00,WNW,293,0.0,2.0,38,0.00,,---,0.00,VWS V14.01,2013-09-04 21:40:00,
2013-09-04 17:45:00,81.0,55.1,30.00,WNW,293,0.0,2.0,41,0.00,,---,0.00,VWS V14.01,2013-09-04 21:45:00,
2013-09-04 17:50:00,80.6,55.4,30.00,North,349,3.0,3.0,42,0.00,,---,0.00,VWS V14.01,2013-09-04 21:50:00,
2013-09-04 17:55:00,80.7,54.2,29.99,NNW,336,1.0,3.0,40,0.00,,---,0.00,VWS V14.01,2013-09-04 21:55:00,
2013-09-04 18:00:00,80.9,54.3,30.00,NNW,333,0.0,4.0,40,0.00,,---,0.00,VWS V14.01,2013-09-04 22:00:00,
2013-09-04 18:05:00,81.2,52.5,30.00,WSW,244,1.0,2.0,37,0.00,,---,0.00,VWS V14.01,2013-09-04 22:05:00,
2013-09-04 18:10:00,81.4,52.7,30.00,SW,226,2.0,3.0,37,0.00,,---,0.00,VWS V14.01,2013-09-04 22:10:00,
2013-09-04 18:15:00,81.3,53.3,30.00,SW,232,0.0,3.0,38,0.00,,---,0.00,VWS V14.01,2013-09-04 22:15:00,
2013-09-04 18:20:00,81.0,54.4,30.00,WSW,247,0.0,3.0,40,0.00,,---,0.00,VWS V14.01,2013-09-04 22:20:00,
2013-09-04 18:25:00,80.6,53.4,30.00,WSW,244,0.0,3.0,39,0.00,,---,0.00,VWS V14.01,2013-09-04 22:25:00,
2013-09-04 18:30:00,80.5,52.6,30.00,WSW,244,0.0,3.0,38,0.00,,---,0.00,VWS V14.01,2013-09-04 22:30:00,
2013-09-04 18:35:00,80.3,51.7,30.00,WSW,244,0.0,2.0,37,0.00,,---,0.00,VWS V14.01,2013-09-04 22:35:00,
2013-09-04 18:40:00,80.4,52.5,30.00,SSW,198,0.0,2.0,38,0.00,,---,0.00,VWS V14.01,2013-09-04 22:40:00,
2013-09-04 18:45:00,79.7,52.6,30.00,SSW,198,0.0,2.0,39,0.00,,---,0.00,VWS V14.01,2013-09-04 22:45:00,
2013-09-04 18:50:00,78.7,53.0,30.00,SSW,198,0.0,2.0,41,0.00,,---,0.00,VWS V14.01,2013-09-04 22:50:00,
2013-09-04 18:55:00,77.5,53.3,30.00,SSW,198,0.0,2.0,43,0.00,,---,0.00,VWS V14.01,2013-09-04 22:55:00,
2013-09-04 19:00:00,76.6,54.3,30.00,SSW,198,0.0,2.0,46,0.00,,---,0.00,VWS V14.01,2013-09-04 23:00:00,
2013-09-04 19:05:00,75.8,54.7,30.00,SSW,198,0.0,0.0,48,0.00,,---,0.00,VWS V14.01,2013-09-04 23:05:00,
2013-09-04 19:10:00,75.0,55.7,30.00,SSW,198,0.0,0.0,51,0.00,,---,0.00,VWS V14.01,2013-09-04 23:10:00,
2013-09-04 19:15:00,73.9,57.7,30.00,SSW,198,0.0,0.0,57,0.00,,---,0.00,VWS V14.01,2013-09-04 23:15:00,
2013-09-04 19:20:00,73.2,57.1,30.00,SSW,198,0.0,0.0,57,0.00,,---,0.00,VWS V14.01,2013-09-04 23:20:00,
2013-09-04 19:25:00,73.0,57.8,30.00,SSW,198,0.0,0.0,59,0.00,,---,0.00,VWS V14.01,2013-09-04 23:25:00,
2013-09-04 19:30:00,72.8,57.7,30.00,SSW,198,0.0,0.0,59,0.00,,---,0.00,VWS V14.01,2013-09-04 23:30:00,
2013-09-04 19:35:00,71.9,59.1,30.00,SSW,198,0.0,0.0,64,0.00,,---,0.00,VWS V14.01,2013-09-04 23:35:00,
2013-09-04 19:40:00,70.8,59.7,30.00,SSW,198,0.0,0.0,68,0.00,,---,0.00,VWS V14.01,2013-09-04 23:40:00,
2013-09-04 19:45:00,70.2,58.7,30.00,SSW,198,0.0,0.0,67,0.00,,---,0.00,VWS V14.01,2013-09-04 23:45:00,
2013-09-04 19:50:00,69.7,58.7,30.00,SSW,198,0.0,0.0,68,0.00,,---,0.00,VWS V14.01,2013-09-04 23:50:00,
2013-09-04 19:55:00,69.2,59.0,30.00,SSW,198,0.0,0.0,70,0.00,,---,0.00,VWS V14.01,2013-09-04 23:55:00,
2013-09-04 20:00:00,68.5,59.1,30.00,SSW,198,0.0,0.0,72,0.00,,---,0.00,VWS V14.01,2013-09-05 00:00:00,
2013-09-04 20:05:00,68.1,59.1,30.00,SSW,198,0.0,0.0,73,0.00,,---,0.00,VWS V14.01,2013-09-05 00:05:00,
2013-09-04 20:10:00,67.5,58.5,30.01,SSW,198,0.0,0.0,73,0.00,,---,0.00,VWS V14.01,2013-09-05 00:10:00,
2013-09-04 20:15:00,67.1,58.5,30.01,SSW,198,0.0,0.0,74,0.00,,---,0.00,VWS V14.01,2013-09-05 00:15:00,
2013-09-04 20:20:00,66.8,58.6,30.01,SSW,198,0.0,0.0,75,0.00,,---,0.00,VWS V14.01,2013-09-05 00:20:00,
2013-09-04 20:25:00,66.6,58.8,30.01,SSW,198,0.0,0.0,76,0.00,,---,0.00,VWS V14.01,2013-09-05 00:25:00,
2013-09-04 20:30:00,66.5,59.1,30.01,SSW,198,0.0,0.0,77,0.00,,---,0.00,VWS V14.01,2013-09-05 00:30:00,
2013-09-04 20:35:00,66.3,58.9,30.01,SSW,198,0.0,0.0,77,0.00,,---,0.00,VWS V14.01,2013-09-05 00:35:00,
2013-09-04 20:40:00,66.1,59.0,30.01,SSW,198,0.0,0.0,78,0.00,,---,0.00,VWS V14.01,2013-09-05 00:40:00,
2013-09-04 20:45:00,66.0,59.3,30.01,SSW,198,0.0,0.0,79,0.00,,---,0.00,VWS V14.01,2013-09-05 00:45:00,
2013-09-04 20:50:00,65.7,59.4,30.01,SSW,198,0.0,0.0,80,0.00,,---,0.00,VWS V14.01,2013-09-05 00:50:00,
2013-09-04 20:55:00,65.5,59.5,30.01,SSW,198,0.0,0.0,81,0.00,,---,0.00,VWS V14.01,2013-09-05 00:55:00,
2013-09-04 21:00:00,65.2,59.9,30.01,SSW,198,0.0,0.0,83,0.00,,---,0.00,VWS V14.01,2013-09-05 01:00:00,
2013-09-04 21:05:00,65.0,59.7,30.01,SSW,198,0.0,0.0,83,0.00,,---,0.00,VWS V14.01,2013-09-05 01:05:00,
2013-09-04 21:10:00,64.6,59.3,30.02,SSW,198,0.0,0.0,83,0.00,,---,0.00,VWS V14.01,2013-09-05 01:10:00,
2013-09-04 21:15:00,64.5,59.9,30.02,SSW,198,0.0,0.0,85,0.00,,---,0.00,VWS V14.01,2013-09-05 01:15:00,
2013-09-04 21:20:00,64.3,59.7,30.02,SSW,198,0.0,0.0,85,0.00,,---,0.00,VWS V14.01,2013-09-05 01:20:00,
2013-09-04 21:25:00,64.1,59.5,30.02,SSW,198,0.0,0.0,85,0.00,,---,0.00,VWS V14.01,2013-09-05 01:25:00,
2013-09-04 21:30:00,64.0,59.7,30.02,SSW,198,0.0,0.0,86,0.00,,---,0.00,VWS V14.01,2013-09-05 01:30:00,
2013-09-04 21:35:00,63.9,59.6,30.02,SSW,198,0.0,0.0,86,0.00,,---,0.00,VWS V14.01,2013-09-05 01:35:00,
2013-09-04 21:40:00,63.7,59.8,30.02,SSW,198,0.0,0.0,87,0.00,,---,0.00,VWS V14.01,2013-09-05 01:40:00,
2013-09-04 21:45:00,63.4,59.8,30.02,SSW,198,0.0,0.0,88,0.00,,---,0.00,VWS V14.01,2013-09-05 01:45:00,
2013-09-04 21:50:00,63.2,59.6,30.02,SSW,198,0.0,0.0,88,0.00,,---,0.00,VWS V14.01,2013-09-05 01:50:00,
2013-09-04 21:55:00,63.2,59.6,30.02,SSW,198,0.0,0.0,88,0.00,,---,0.00,VWS V14.01,2013-09-05 01:55:00,
2013-09-04 22:00:00,63.2,59.9,30.02,SSW,198,0.0,0.0,89,0.00,,---,0.00,VWS V14.01,2013-09-05 02:00:00,
2013-09-04 22:05:00,63.0,59.7,30.02,SSW,198,0.0,0.0,89,0.00,,---,0.00,VWS V14.01,2013-09-05 02:05:00,
2013-09-04 22:10:00,62.7,59.7,30.02,SSW,198,0.0,0.0,90,0.00,,---,0.00,VWS V14.01,2013-09-05 02:10:00,
2013-09-04 22:15:00,62.5,59.8,30.02,SSW,198,0.0,0.0,91,0.00,,---,0.00,VWS V14.01,2013-09-05 02:15:00,
2013-09-04 22:20:00,62.4,59.7,30.02,SSW,198,0.0,0.0,91,0.00,,---,0.00,VWS V14.01,2013-09-05 02:20:00,
2013-09-04 22:25:00,62.4,59.4,30.03,SSW,198,0.0,0.0,90,0.00,,---,0.00,VWS V14.01,2013-09-05 02:25:00,
2013-09-04 22:30:00,62.3,59.6,30.03,SSW,198,0.0,0.0,91,0.00,,---,0.00,VWS V14.01,2013-09-05 02:30:00,
2013-09-04 22:35:00,62.3,59.6,30.03,SSW,198,0.0,0.0,91,0.00,,---,0.00,VWS V14.01,2013-09-05 02:35:00,
2013-09-04 22:40:00,62.3,59.6,30.03,SSW,198,0.0,0.0,91,0.00,,---,0.00,VWS V14.01,2013-09-05 02:40:00,
2013-09-04 22:45:00,62.2,59.8,30.03,SSW,198,0.0,0.0,92,0.00,,---,0.00,VWS V14.01,2013-09-05 02:45:00,
2013-09-04 22:50:00,62.1,59.8,30.03,SSW,198,0.0,0.0,92,0.00,,---,0.00,VWS V14.01,2013-09-05 02:50:00,
2013-09-04 22:55:00,62.2,59.8,30.03,SSW,198,0.0,0.0,92,0.00,,---,0.00,VWS V14.01,2013-09-05 02:55:00,
2013-09-04 23:00:00,62.4,60.0,30.03,SSW,198,0.0,0.0,92,0.00,,---,0.00,VWS V14.01,2013-09-05 03:00:00,
2013-09-04 23:05:00,62.2,59.8,30.03,SSW,198,0.0,0.0,92,0.00,,---,0.00,VWS V14.01,2013-09-05 03:05:00,
2013-09-04 23:10:00,61.9,59.9,30.03,SSW,198,0.0,0.0,93,0.00,,---,0.00,VWS V14.01,2013-09-05 03:10:00,
2013-09-04 23:15:00,61.9,59.9,30.03,SSW,198,0.0,0.0,93,0.00,,---,0.00,VWS V14.01,2013-09-05 03:15:00,
2013-09-04 23:20:00,61.9,59.9,30.03,SSW,198,0.0,0.0,93,0.00,,---,0.00,VWS V14.01,2013-09-05 03:20:00,
2013-09-04 23:25:00,61.8,59.8,30.03,SSW,198,0.0,0.0,93,0.00,,---,0.00,VWS V14.01,2013-09-05 03:25:00,
2013-09-04 23:30:00,61.7,59.7,30.03,SSW,198,0.0,0.0,93,0.00,,---,0.00,VWS V14.01,2013-09-05 03:30:00,
2013-09-04 23:35:00,61.6,59.6,30.03,SSW,198,0.0,0.0,93,0.00,,---,0.00,VWS V14.01,2013-09-05 03:35:00,
2013-09-04 23:40:00,61.5,59.5,30.03,SSW,198,0.0,0.0,93,0.00,,---,0.00,VWS V14.01,2013-09-05 03:40:00,
2013-09-04 23:45:00,61.4,59.4,30.03,SSW,198,0.0,0.0,93,0.00,,---,0.00,VWS V14.01,2013-09-05 03:45:00,
2013-09-04 23:50:00,61.4,59.7,30.03,SSW,198,0.0,0.0,94,0.00,,---,0.00,VWS V14.01,2013-09-05 03:50:00,
2013-09-04 23:55:00,61.3,59.6,30.03,SSW,198,0.0,0.0,94,0.00,,---,0.00,VWS V14.01,2013-09-05 03:55:00,